sensor_id;sensor_type;location;lat;lon;timestamp;temperature;humidity
18388;DHT22;9320;50.256;19.026;2023-05-10T00:00:17;9.60;76.90
18388;DHT22;9320;50.256;19.026;2023-05-10T00:02:45;9.60;77.00
18388;DHT22;9320;50.256;19.026;2023-05-10T00:05:14;9.60;76.80
18388;DHT22;9320;50.256;19.026;2023-05-10T00:07:42;9.50;77.00
18388;DHT22;9320;50.256;19.026;2023-05-10T00:10:11;9.50;76.80
18388;DHT22;9320;50.256;19.026;2023-05-10T00:12:40;9.60;76.90
18388;DHT22;9320;50.256;19.026;2023-05-10T00:15:10;9.60;77.30
18388;DHT22;9320;50.256;19.026;2023-05-10T00:17:38;9.60;77.60
18388;DHT22;9320;50.256;19.026;2023-05-10T00:20:07;9.50;77.90
18388;DHT22;9320;50.256;19.026;2023-05-10T00:22:36;9.50;78.30
18388;DHT22;9320;50.256;19.026;2023-05-10T00:25:05;9.40;78.40
18388;DHT22;9320;50.256;19.026;2023-05-10T00:27:33;9.30;78.90
18388;DHT22;9320;50.256;19.026;2023-05-10T00:30:01;9.30;80.10
18388;DHT22;9320;50.256;19.026;2023-05-10T00:32:30;9.20;79.40
18388;DHT22;9320;50.256;19.026;2023-05-10T00:34:58;9.10;79.90
18388;DHT22;9320;50.256;19.026;2023-05-10T00:37:26;9.30;79.50
18388;DHT22;9320;50.256;19.026;2023-05-10T00:39:54;9.30;79.40
18388;DHT22;9320;50.256;19.026;2023-05-10T00:42:22;9.20;79.30
18388;DHT22;9320;50.256;19.026;2023-05-10T00:44:50;9.20;79.60
18388;DHT22;9320;50.256;19.026;2023-05-10T00:47:18;9.10;80.20
18388;DHT22;9320;50.256;19.026;2023-05-10T00:49:48;9.00;80.60
18388;DHT22;9320;50.256;19.026;2023-05-10T00:52:16;9.10;80.50
18388;DHT22;9320;50.256;19.026;2023-05-10T00:54:44;9.00;81.10
18388;DHT22;9320;50.256;19.026;2023-05-10T00:57:12;9.10;80.60
18388;DHT22;9320;50.256;19.026;2023-05-10T00:59:40;9.10;80.90
18388;DHT22;9320;50.256;19.026;2023-05-10T01:02:08;9.00;81.60
18388;DHT22;9320;50.256;19.026;2023-05-10T01:04:37;8.80;82.40
18388;DHT22;9320;50.256;19.026;2023-05-10T01:07:07;8.70;83.10
18388;DHT22;9320;50.256;19.026;2023-05-10T01:09:35;8.70;83.90
18388;DHT22;9320;50.256;19.026;2023-05-10T01:12:04;8.60;84.00
18388;DHT22;9320;50.256;19.026;2023-05-10T01:14:34;8.60;84.20
18388;DHT22;9320;50.256;19.026;2023-05-10T01:17:04;8.60;84.10
18388;DHT22;9320;50.256;19.026;2023-05-10T01:19:34;8.70;84.00
18388;DHT22;9320;50.256;19.026;2023-05-10T01:22:13;8.60;84.60
18388;DHT22;9320;50.256;19.026;2023-05-10T01:25:10;8.60;85.30
18388;DHT22;9320;50.256;19.026;2023-05-10T01:27:52;8.60;86.00
18388;DHT22;9320;50.256;19.026;2023-05-10T01:30:58;8.50;86.10
18388;DHT22;9320;50.256;19.026;2023-05-10T01:33:35;8.50;85.90
18388;DHT22;9320;50.256;19.026;2023-05-10T01:36:11;8.50;86.50
18388;DHT22;9320;50.256;19.026;2023-05-10T01:38:44;8.50;86.90
18388;DHT22;9320;50.256;19.026;2023-05-10T01:41:19;8.50;87.00
18388;DHT22;9320;50.256;19.026;2023-05-10T01:43:57;8.60;86.60
18388;DHT22;9320;50.256;19.026;2023-05-10T01:46:31;8.50;87.20
18388;DHT22;9320;50.256;19.026;2023-05-10T01:49:03;8.50;87.00
18388;DHT22;9320;50.256;19.026;2023-05-10T01:51:38;8.70;87.50
18388;DHT22;9320;50.256;19.026;2023-05-10T01:54:08;8.30;88.30
18388;DHT22;9320;50.256;19.026;2023-05-10T01:56:39;8.30;88.70
18388;DHT22;9320;50.256;19.026;2023-05-10T01:59:12;8.40;88.60
18388;DHT22;9320;50.256;19.026;2023-05-10T02:01:43;8.40;87.70
18388;DHT22;9320;50.256;19.026;2023-05-10T02:04:16;8.40;88.50
18388;DHT22;9320;50.256;19.026;2023-05-10T02:06:46;8.30;89.50
18388;DHT22;9320;50.256;19.026;2023-05-10T02:09:16;8.30;89.20
18388;DHT22;9320;50.256;19.026;2023-05-10T02:11:44;8.20;89.70
18388;DHT22;9320;50.256;19.026;2023-05-10T02:14:13;8.10;90.20
18388;DHT22;9320;50.256;19.026;2023-05-10T02:16:43;8.00;90.40
18388;DHT22;9320;50.256;19.026;2023-05-10T02:19:14;8.00;90.50
18388;DHT22;9320;50.256;19.026;2023-05-10T02:21:43;8.00;90.80
18388;DHT22;9320;50.256;19.026;2023-05-10T02:24:13;8.00;91.00
18388;DHT22;9320;50.256;19.026;2023-05-10T02:26:44;7.90;91.20
18388;DHT22;9320;50.256;19.026;2023-05-10T02:29:14;7.80;91.10
18388;DHT22;9320;50.256;19.026;2023-05-10T02:31:42;7.80;91.50
18388;DHT22;9320;50.256;19.026;2023-05-10T02:34:12;7.70;91.60
18388;DHT22;9320;50.256;19.026;2023-05-10T02:36:41;7.70;91.90
18388;DHT22;9320;50.256;19.026;2023-05-10T02:39:10;7.60;92.20
18388;DHT22;9320;50.256;19.026;2023-05-10T02:41:40;7.60;92.50
18388;DHT22;9320;50.256;19.026;2023-05-10T02:44:10;7.60;92.40
18388;DHT22;9320;50.256;19.026;2023-05-10T02:46:39;7.60;92.40
18388;DHT22;9320;50.256;19.026;2023-05-10T02:49:07;7.50;92.60
18388;DHT22;9320;50.256;19.026;2023-05-10T02:51:41;7.40;93.00
18388;DHT22;9320;50.256;19.026;2023-05-10T02:54:13;7.40;93.10
18388;DHT22;9320;50.256;19.026;2023-05-10T02:56:47;7.50;93.00
18388;DHT22;9320;50.256;19.026;2023-05-10T02:59:18;7.50;92.80
18388;DHT22;9320;50.256;19.026;2023-05-10T03:01:46;7.60;92.40
18388;DHT22;9320;50.256;19.026;2023-05-10T03:04:14;7.50;92.50
18388;DHT22;9320;50.256;19.026;2023-05-10T03:06:44;7.50;92.40
18388;DHT22;9320;50.256;19.026;2023-05-10T03:09:13;7.40;92.90
18388;DHT22;9320;50.256;19.026;2023-05-10T03:11:50;7.20;93.40
18388;DHT22;9320;50.256;19.026;2023-05-10T03:14:33;7.30;93.70
18388;DHT22;9320;50.256;19.026;2023-05-10T03:17:08;7.30;93.90
18388;DHT22;9320;50.256;19.026;2023-05-10T03:19:43;7.30;94.00
18388;DHT22;9320;50.256;19.026;2023-05-10T03:22:21;7.30;94.10
18388;DHT22;9320;50.256;19.026;2023-05-10T03:24:53;7.40;93.70
18388;DHT22;9320;50.256;19.026;2023-05-10T03:27:23;7.40;93.80
18388;DHT22;9320;50.256;19.026;2023-05-10T03:29:53;7.30;94.10
18388;DHT22;9320;50.256;19.026;2023-05-10T03:32:22;7.30;94.60
18388;DHT22;9320;50.256;19.026;2023-05-10T03:34:50;7.30;94.50
18388;DHT22;9320;50.256;19.026;2023-05-10T03:37:20;7.40;94.10
18388;DHT22;9320;50.256;19.026;2023-05-10T03:39:48;7.40;94.10
18388;DHT22;9320;50.256;19.026;2023-05-10T03:42:16;7.50;94.10
18388;DHT22;9320;50.256;19.026;2023-05-10T03:44:44;7.40;94.40
18388;DHT22;9320;50.256;19.026;2023-05-10T03:47:12;7.30;94.70
18388;DHT22;9320;50.256;19.026;2023-05-10T03:49:40;7.30;95.40
18388;DHT22;9320;50.256;19.026;2023-05-10T03:52:08;7.30;95.30
18388;DHT22;9320;50.256;19.026;2023-05-10T03:54:38;7.40;95.40
18388;DHT22;9320;50.256;19.026;2023-05-10T03:57:06;7.50;94.70
18388;DHT22;9320;50.256;19.026;2023-05-10T03:59:34;7.50;94.60
18388;DHT22;9320;50.256;19.026;2023-05-10T04:02:02;7.40;95.00
18388;DHT22;9320;50.256;19.026;2023-05-10T04:04:30;7.30;95.50
18388;DHT22;9320;50.256;19.026;2023-05-10T04:06:58;7.40;95.90
18388;DHT22;9320;50.256;19.026;2023-05-10T04:09:26;7.40;95.40
18388;DHT22;9320;50.256;19.026;2023-05-10T04:11:55;7.30;95.80
18388;DHT22;9320;50.256;19.026;2023-05-10T04:14:23;7.30;95.70
18388;DHT22;9320;50.256;19.026;2023-05-10T04:16:51;7.40;95.90
18388;DHT22;9320;50.256;19.026;2023-05-10T04:19:19;7.40;95.70
18388;DHT22;9320;50.256;19.026;2023-05-10T04:21:48;7.40;95.50
18388;DHT22;9320;50.256;19.026;2023-05-10T04:24:16;7.40;95.60
18388;DHT22;9320;50.256;19.026;2023-05-10T04:26:44;7.50;95.60
18388;DHT22;9320;50.256;19.026;2023-05-10T04:29:13;7.50;95.50
18388;DHT22;9320;50.256;19.026;2023-05-10T04:31:41;7.50;95.60
18388;DHT22;9320;50.256;19.026;2023-05-10T04:34:09;7.40;95.90
18388;DHT22;9320;50.256;19.026;2023-05-10T04:36:37;7.50;96.20
18388;DHT22;9320;50.256;19.026;2023-05-10T04:39:05;7.50;96.10
18388;DHT22;9320;50.256;19.026;2023-05-10T04:41:33;7.50;96.00
18388;DHT22;9320;50.256;19.026;2023-05-10T04:44:01;7.60;96.00
18388;DHT22;9320;50.256;19.026;2023-05-10T04:46:31;7.80;95.70
18388;DHT22;9320;50.256;19.026;2023-05-10T04:48:59;7.90;95.10
18388;DHT22;9320;50.256;19.026;2023-05-10T04:51:27;8.10;94.60
18388;DHT22;9320;50.256;19.026;2023-05-10T04:53:55;8.20;94.10
18388;DHT22;9320;50.256;19.026;2023-05-10T04:56:32;8.20;94.00
18388;DHT22;9320;50.256;19.026;2023-05-10T04:59:00;8.30;93.60
18388;DHT22;9320;50.256;19.026;2023-05-10T05:01:28;8.40;93.40
18388;DHT22;9320;50.256;19.026;2023-05-10T05:03:57;8.50;93.00
18388;DHT22;9320;50.256;19.026;2023-05-10T05:06:26;8.60;93.00
18388;DHT22;9320;50.256;19.026;2023-05-10T05:08:54;8.60;92.50
18388;DHT22;9320;50.256;19.026;2023-05-10T05:11:22;8.80;92.20
18388;DHT22;9320;50.256;19.026;2023-05-10T05:13:50;8.90;91.90
18388;DHT22;9320;50.256;19.026;2023-05-10T05:16:18;8.90;91.80
18388;DHT22;9320;50.256;19.026;2023-05-10T05:18:46;9.00;91.20
18388;DHT22;9320;50.256;19.026;2023-05-10T05:21:16;9.10;90.80
18388;DHT22;9320;50.256;19.026;2023-05-10T05:23:44;9.20;90.60
18388;DHT22;9320;50.256;19.026;2023-05-10T05:26:12;9.40;90.40
18388;DHT22;9320;50.256;19.026;2023-05-10T05:28:41;9.50;89.70
18388;DHT22;9320;50.256;19.026;2023-05-10T05:31:09;9.50;89.80
18388;DHT22;9320;50.256;19.026;2023-05-10T05:33:38;9.50;89.00
18388;DHT22;9320;50.256;19.026;2023-05-10T05:36:06;9.70;88.00
18388;DHT22;9320;50.256;19.026;2023-05-10T05:38:36;9.70;87.80
18388;DHT22;9320;50.256;19.026;2023-05-10T05:41:04;9.80;87.40
18388;DHT22;9320;50.256;19.026;2023-05-10T05:43:32;9.90;87.20
18388;DHT22;9320;50.256;19.026;2023-05-10T05:46:03;10.00;87.40
18388;DHT22;9320;50.256;19.026;2023-05-10T05:48:31;10.10;85.70
18388;DHT22;9320;50.256;19.026;2023-05-10T05:50:59;10.20;85.80
18388;DHT22;9320;50.256;19.026;2023-05-10T05:53:29;10.30;85.00
18388;DHT22;9320;50.256;19.026;2023-05-10T05:55:59;10.50;84.50
18388;DHT22;9320;50.256;19.026;2023-05-10T05:58:27;10.60;83.40
18388;DHT22;9320;50.256;19.026;2023-05-10T06:00:55;10.70;83.00
18388;DHT22;9320;50.256;19.026;2023-05-10T06:03:24;10.80;82.30
18388;DHT22;9320;50.256;19.026;2023-05-10T06:05:52;10.90;82.10
18388;DHT22;9320;50.256;19.026;2023-05-10T06:08:20;11.00;81.80
18388;DHT22;9320;50.256;19.026;2023-05-10T06:10:49;11.10;81.00
18388;DHT22;9320;50.256;19.026;2023-05-10T06:13:18;11.20;80.40
18388;DHT22;9320;50.256;19.026;2023-05-10T06:15:46;11.30;79.80
18388;DHT22;9320;50.256;19.026;2023-05-10T06:18:14;11.40;79.40
18388;DHT22;9320;50.256;19.026;2023-05-10T06:20:42;11.50;78.80
18388;DHT22;9320;50.256;19.026;2023-05-10T06:23:10;11.60;78.20
18388;DHT22;9320;50.256;19.026;2023-05-10T06:25:38;11.70;77.60
18388;DHT22;9320;50.256;19.026;2023-05-10T06:28:07;11.80;77.20
18388;DHT22;9320;50.256;19.026;2023-05-10T06:30:37;11.90;76.50
18388;DHT22;9320;50.256;19.026;2023-05-10T06:33:05;12.00;75.90
18388;DHT22;9320;50.256;19.026;2023-05-10T06:35:33;12.10;75.10
18388;DHT22;9320;50.256;19.026;2023-05-10T06:38:01;12.30;74.30
18388;DHT22;9320;50.256;19.026;2023-05-10T06:40:29;12.50;74.30
18388;DHT22;9320;50.256;19.026;2023-05-10T06:42:57;12.40;73.80
18388;DHT22;9320;50.256;19.026;2023-05-10T06:45:25;12.60;72.40
18388;DHT22;9320;50.256;19.026;2023-05-10T06:47:54;12.70;71.30
18388;DHT22;9320;50.256;19.026;2023-05-10T06:50:22;12.80;71.30
18388;DHT22;9320;50.256;19.026;2023-05-10T06:52:50;12.80;70.50
18388;DHT22;9320;50.256;19.026;2023-05-10T06:55:19;13.10;69.10
18388;DHT22;9320;50.256;19.026;2023-05-10T06:57:47;13.20;68.10
18388;DHT22;9320;50.256;19.026;2023-05-10T07:00:16;13.30;67.70
18388;DHT22;9320;50.256;19.026;2023-05-10T07:02:44;13.30;67.50
18388;DHT22;9320;50.256;19.026;2023-05-10T07:05:14;13.50;66.60
18388;DHT22;9320;50.256;19.026;2023-05-10T07:07:43;13.60;66.40
18388;DHT22;9320;50.256;19.026;2023-05-10T07:10:11;13.60;65.50
18388;DHT22;9320;50.256;19.026;2023-05-10T07:12:40;13.70;65.20
18388;DHT22;9320;50.256;19.026;2023-05-10T07:15:09;13.80;64.20
18388;DHT22;9320;50.256;19.026;2023-05-10T07:17:37;13.90;63.90
18388;DHT22;9320;50.256;19.026;2023-05-10T07:20:08;14.00;63.70
18388;DHT22;9320;50.256;19.026;2023-05-10T07:22:38;14.10;63.40
18388;DHT22;9320;50.256;19.026;2023-05-10T07:25:06;14.20;63.20
18388;DHT22;9320;50.256;19.026;2023-05-10T07:27:35;14.20;62.50
18388;DHT22;9320;50.256;19.026;2023-05-10T07:30:03;14.30;62.40
18388;DHT22;9320;50.256;19.026;2023-05-10T07:32:31;14.50;61.60
18388;DHT22;9320;50.256;19.026;2023-05-10T07:35:00;14.70;61.10
18388;DHT22;9320;50.256;19.026;2023-05-10T07:37:28;14.80;60.80
18388;DHT22;9320;50.256;19.026;2023-05-10T07:39:57;14.90;60.70
18388;DHT22;9320;50.256;19.026;2023-05-10T07:42:25;15.00;60.00
18388;DHT22;9320;50.256;19.026;2023-05-10T07:44:53;15.10;60.10
18388;DHT22;9320;50.256;19.026;2023-05-10T07:47:21;15.30;58.80
18388;DHT22;9320;50.256;19.026;2023-05-10T07:49:50;15.40;58.10
18388;DHT22;9320;50.256;19.026;2023-05-10T07:52:18;15.50;57.10
18388;DHT22;9320;50.256;19.026;2023-05-10T07:54:48;15.80;56.80
18388;DHT22;9320;50.256;19.026;2023-05-10T07:57:17;16.00;56.50
18388;DHT22;9320;50.256;19.026;2023-05-10T07:59:45;17.00;55.70
18388;DHT22;9320;50.256;19.026;2023-05-10T08:02:14;19.40;50.20
18388;DHT22;9320;50.256;19.026;2023-05-10T08:04:42;21.20;45.50
18388;DHT22;9320;50.256;19.026;2023-05-10T08:07:10;22.90;43.00
18388;DHT22;9320;50.256;19.026;2023-05-10T08:09:38;23.70;39.70
18388;DHT22;9320;50.256;19.026;2023-05-10T08:12:06;24.40;37.80
18388;DHT22;9320;50.256;19.026;2023-05-10T08:14:35;25.40;36.30
18388;DHT22;9320;50.256;19.026;2023-05-10T08:17:04;26.60;33.80
18388;DHT22;9320;50.256;19.026;2023-05-10T08:19:32;27.00;32.30
18388;DHT22;9320;50.256;19.026;2023-05-10T08:22:00;26.50;32.90
18388;DHT22;9320;50.256;19.026;2023-05-10T08:24:28;26.40;32.00
18388;DHT22;9320;50.256;19.026;2023-05-10T08:26:56;26.70;32.40
18388;DHT22;9320;50.256;19.026;2023-05-10T08:29:25;27.90;30.80
18388;DHT22;9320;50.256;19.026;2023-05-10T08:31:57;29.50;29.10
18388;DHT22;9320;50.256;19.026;2023-05-10T08:34:25;30.30;28.70
18388;DHT22;9320;50.256;19.026;2023-05-10T08:36:53;29.50;28.20
18388;DHT22;9320;50.256;19.026;2023-05-10T08:39:21;30.20;28.00
18388;DHT22;9320;50.256;19.026;2023-05-10T08:42:02;29.20;27.70
18388;DHT22;9320;50.256;19.026;2023-05-10T08:44:32;30.20;27.70
18388;DHT22;9320;50.256;19.026;2023-05-10T08:47:05;29.70;27.00
18388;DHT22;9320;50.256;19.026;2023-05-10T08:49:34;29.10;28.10
18388;DHT22;9320;50.256;19.026;2023-05-10T08:52:03;29.30;27.40
18388;DHT22;9320;50.256;19.026;2023-05-10T08:54:32;30.50;27.70
18388;DHT22;9320;50.256;19.026;2023-05-10T08:57:01;32.00;26.80
18388;DHT22;9320;50.256;19.026;2023-05-10T08:59:30;32.90;26.40
18388;DHT22;9320;50.256;19.026;2023-05-10T09:01:59;32.30;24.50
18388;DHT22;9320;50.256;19.026;2023-05-10T09:04:29;30.50;25.40
18388;DHT22;9320;50.256;19.026;2023-05-10T09:06:58;30.20;27.00
18388;DHT22;9320;50.256;19.026;2023-05-10T09:09:27;32.60;25.00
18388;DHT22;9320;50.256;19.026;2023-05-10T09:11:55;32.00;24.60
18388;DHT22;9320;50.256;19.026;2023-05-10T09:14:24;34.20;24.80
18388;DHT22;9320;50.256;19.026;2023-05-10T09:16:53;37.90;22.90
18388;DHT22;9320;50.256;19.026;2023-05-10T09:19:22;40.30;21.60
18388;DHT22;9320;50.256;19.026;2023-05-10T09:21:51;39.90;20.50
18388;DHT22;9320;50.256;19.026;2023-05-10T09:24:19;37.80;21.00
18388;DHT22;9320;50.256;19.026;2023-05-10T09:26:47;40.10;22.00
18388;DHT22;9320;50.256;19.026;2023-05-10T09:29:16;40.10;20.20
18388;DHT22;9320;50.256;19.026;2023-05-10T09:31:46;41.60;20.30
18388;DHT22;9320;50.256;19.026;2023-05-10T09:34:18;38.60;20.10
18388;DHT22;9320;50.256;19.026;2023-05-10T09:36:53;39.00;20.90
18388;DHT22;9320;50.256;19.026;2023-05-10T09:39:23;39.10;21.30
18388;DHT22;9320;50.256;19.026;2023-05-10T09:41:58;39.60;21.00
18388;DHT22;9320;50.256;19.026;2023-05-10T09:44:26;38.00;20.80
18388;DHT22;9320;50.256;19.026;2023-05-10T09:46:54;36.90;21.90
18388;DHT22;9320;50.256;19.026;2023-05-10T09:49:23;36.70;20.90
18388;DHT22;9320;50.256;19.026;2023-05-10T09:52:03;36.10;21.90
18388;DHT22;9320;50.256;19.026;2023-05-10T09:54:32;39.00;21.40
18388;DHT22;9320;50.256;19.026;2023-05-10T09:57:00;38.50;19.20
18388;DHT22;9320;50.256;19.026;2023-05-10T09:59:29;37.50;20.70
18388;DHT22;9320;50.256;19.026;2023-05-10T10:01:57;38.80;20.20
18388;DHT22;9320;50.256;19.026;2023-05-10T10:04:27;41.00;20.30
18388;DHT22;9320;50.256;19.026;2023-05-10T10:06:59;40.40;20.30
18388;DHT22;9320;50.256;19.026;2023-05-10T10:09:29;39.20;19.60
18388;DHT22;9320;50.256;19.026;2023-05-10T10:11:59;37.90;19.60
18388;DHT22;9320;50.256;19.026;2023-05-10T10:14:27;33.90;21.60
18388;DHT22;9320;50.256;19.026;2023-05-10T10:16:56;34.30;22.50
18388;DHT22;9320;50.256;19.026;2023-05-10T10:19:34;35.30;22.10
18388;DHT22;9320;50.256;19.026;2023-05-10T10:22:04;36.10;21.90
18388;DHT22;9320;50.256;19.026;2023-05-10T10:24:34;34.90;22.30
18388;DHT22;9320;50.256;19.026;2023-05-10T10:27:12;34.80;23.20
18388;DHT22;9320;50.256;19.026;2023-05-10T10:29:50;33.20;24.50
18388;DHT22;9320;50.256;19.026;2023-05-10T10:32:25;30.00;25.80
18388;DHT22;9320;50.256;19.026;2023-05-10T10:34:56;27.70;27.70
18388;DHT22;9320;50.256;19.026;2023-05-10T10:37:42;26.20;29.30
18388;DHT22;9320;50.256;19.026;2023-05-10T10:40:26;25.20;30.60
18388;DHT22;9320;50.256;19.026;2023-05-10T10:42:54;24.40;31.90
18388;DHT22;9320;50.256;19.026;2023-05-10T10:45:23;22.80;34.70
18388;DHT22;9320;50.256;19.026;2023-05-10T10:50:43;22.60;35.70
18388;DHT22;9320;50.256;19.026;2023-05-10T10:53:12;22.00;36.30
18388;DHT22;9320;50.256;19.026;2023-05-10T10:55:49;21.80;36.80
18388;DHT22;9320;50.256;19.026;2023-05-10T10:58:29;21.50;37.50
18388;DHT22;9320;50.256;19.026;2023-05-10T11:01:12;21.30;37.80
18388;DHT22;9320;50.256;19.026;2023-05-10T11:03:40;21.30;38.80
18388;DHT22;9320;50.256;19.026;2023-05-10T11:06:09;21.20;38.50
18388;DHT22;9320;50.256;19.026;2023-05-10T11:08:42;20.70;39.40
18388;DHT22;9320;50.256;19.026;2023-05-10T11:11:17;20.50;39.90
18388;DHT22;9320;50.256;19.026;2023-05-10T11:13:46;20.70;39.90
18388;DHT22;9320;50.256;19.026;2023-05-10T11:16:18;20.50;39.80
18388;DHT22;9320;50.256;19.026;2023-05-10T11:18:55;20.70;39.70
18388;DHT22;9320;50.256;19.026;2023-05-10T11:21:25;21.00;39.60
18388;DHT22;9320;50.256;19.026;2023-05-10T11:23:54;21.10;38.50
18388;DHT22;9320;50.256;19.026;2023-05-10T11:26:30;21.40;37.90
18388;DHT22;9320;50.256;19.026;2023-05-10T11:28:58;21.20;38.30
18388;DHT22;9320;50.256;19.026;2023-05-10T11:31:28;21.20;38.70
18388;DHT22;9320;50.256;19.026;2023-05-10T11:33:58;21.50;38.70
18388;DHT22;9320;50.256;19.026;2023-05-10T11:36:27;21.60;38.90
18388;DHT22;9320;50.256;19.026;2023-05-10T11:38:56;21.90;38.70
18388;DHT22;9320;50.256;19.026;2023-05-10T11:41:28;22.40;37.70
18388;DHT22;9320;50.256;19.026;2023-05-10T11:43:57;22.60;37.20
18388;DHT22;9320;50.256;19.026;2023-05-10T11:46:26;22.60;36.80
18388;DHT22;9320;50.256;19.026;2023-05-10T11:48:57;22.50;36.60
18388;DHT22;9320;50.256;19.026;2023-05-10T11:51:27;22.10;37.10
18388;DHT22;9320;50.256;19.026;2023-05-10T11:53:56;21.80;38.20
18388;DHT22;9320;50.256;19.026;2023-05-10T11:56:25;21.70;38.50
18388;DHT22;9320;50.256;19.026;2023-05-10T11:58:55;21.70;38.50
18388;DHT22;9320;50.256;19.026;2023-05-10T12:01:24;21.70;38.30
18388;DHT22;9320;50.256;19.026;2023-05-10T12:03:53;21.20;38.70
18388;DHT22;9320;50.256;19.026;2023-05-10T12:06:27;21.30;39.10
18388;DHT22;9320;50.256;19.026;2023-05-10T12:08:55;21.10;39.90
18388;DHT22;9320;50.256;19.026;2023-05-10T12:11:27;20.90;40.50
18388;DHT22;9320;50.256;19.026;2023-05-10T12:13:55;20.80;40.90
18388;DHT22;9320;50.256;19.026;2023-05-10T12:16:25;20.90;40.10
18388;DHT22;9320;50.256;19.026;2023-05-10T12:18:57;21.00;40.40
18388;DHT22;9320;50.256;19.026;2023-05-10T12:21:26;20.70;41.20
18388;DHT22;9320;50.256;19.026;2023-05-10T12:23:59;20.80;40.80
18388;DHT22;9320;50.256;19.026;2023-05-10T12:26:30;21.00;41.00
18388;DHT22;9320;50.256;19.026;2023-05-10T12:29:12;21.40;40.50
18388;DHT22;9320;50.256;19.026;2023-05-10T12:31:53;21.40;40.10
18388;DHT22;9320;50.256;19.026;2023-05-10T12:34:26;21.70;39.80
18388;DHT22;9320;50.256;19.026;2023-05-10T12:36:55;21.60;39.60
18388;DHT22;9320;50.256;19.026;2023-05-10T12:39:23;21.70;39.40
18388;DHT22;9320;50.256;19.026;2023-05-10T12:41:53;21.60;39.40
18388;DHT22;9320;50.256;19.026;2023-05-10T12:44:21;21.70;39.40
18388;DHT22;9320;50.256;19.026;2023-05-10T12:46:49;21.70;39.30
18388;DHT22;9320;50.256;19.026;2023-05-10T12:49:17;21.50;39.40
18388;DHT22;9320;50.256;19.026;2023-05-10T12:51:46;21.50;39.60
18388;DHT22;9320;50.256;19.026;2023-05-10T12:54:14;21.30;40.00
18388;DHT22;9320;50.256;19.026;2023-05-10T12:56:42;21.20;39.90
18388;DHT22;9320;50.256;19.026;2023-05-10T12:59:12;21.00;40.20
18388;DHT22;9320;50.256;19.026;2023-05-10T13:01:40;21.20;40.40
18388;DHT22;9320;50.256;19.026;2023-05-10T13:04:08;21.00;40.30
18388;DHT22;9320;50.256;19.026;2023-05-10T13:06:36;20.80;40.40
18388;DHT22;9320;50.256;19.026;2023-05-10T13:09:04;20.70;41.00
18388;DHT22;9320;50.256;19.026;2023-05-10T13:11:32;20.70;41.10
18388;DHT22;9320;50.256;19.026;2023-05-10T13:14:00;20.70;41.10
18388;DHT22;9320;50.256;19.026;2023-05-10T13:16:31;20.60;41.30
18388;DHT22;9320;50.256;19.026;2023-05-10T13:18:59;20.60;41.30
18388;DHT22;9320;50.256;19.026;2023-05-10T13:21:28;20.80;41.20
18388;DHT22;9320;50.256;19.026;2023-05-10T13:23:56;21.10;41.00
18388;DHT22;9320;50.256;19.026;2023-05-10T13:26:24;21.40;40.50
18388;DHT22;9320;50.256;19.026;2023-05-10T13:28:52;21.40;40.10
18388;DHT22;9320;50.256;19.026;2023-05-10T13:31:22;21.30;40.00
18388;DHT22;9320;50.256;19.026;2023-05-10T13:33:51;21.30;40.20
18388;DHT22;9320;50.256;19.026;2023-05-10T13:36:19;21.20;40.20
18388;DHT22;9320;50.256;19.026;2023-05-10T13:38:47;21.10;40.40
18388;DHT22;9320;50.256;19.026;2023-05-10T13:41:15;20.90;40.40
18388;DHT22;9320;50.256;19.026;2023-05-10T13:43:44;20.90;40.70
18388;DHT22;9320;50.256;19.026;2023-05-10T13:46:12;20.90;40.80
18388;DHT22;9320;50.256;19.026;2023-05-10T13:48:40;20.60;41.30
18388;DHT22;9320;50.256;19.026;2023-05-10T13:51:10;20.50;41.60
18388;DHT22;9320;50.256;19.026;2023-05-10T13:53:37;20.60;41.70
18388;DHT22;9320;50.256;19.026;2023-05-10T13:56:06;20.50;41.30
18388;DHT22;9320;50.256;19.026;2023-05-10T13:58:34;20.50;41.80
18388;DHT22;9320;50.256;19.026;2023-05-10T14:01:03;20.60;41.10
18388;DHT22;9320;50.256;19.026;2023-05-10T14:03:31;21.00;40.50
18388;DHT22;9320;50.256;19.026;2023-05-10T14:06:00;21.20;40.40
18388;DHT22;9320;50.256;19.026;2023-05-10T14:08:29;21.00;40.90
18388;DHT22;9320;50.256;19.026;2023-05-10T14:10:57;20.90;41.00
18388;DHT22;9320;50.256;19.026;2023-05-10T14:13:25;20.70;41.20
18388;DHT22;9320;50.256;19.026;2023-05-10T14:15:53;20.60;41.80
18388;DHT22;9320;50.256;19.026;2023-05-10T14:18:22;20.40;42.00
18388;DHT22;9320;50.256;19.026;2023-05-10T14:20:50;20.30;42.10
18388;DHT22;9320;50.256;19.026;2023-05-10T14:23:18;20.30;42.40
18388;DHT22;9320;50.256;19.026;2023-05-10T14:25:52;20.20;42.30
18388;DHT22;9320;50.256;19.026;2023-05-10T14:28:20;20.10;42.60
18388;DHT22;9320;50.256;19.026;2023-05-10T14:30:49;19.90;42.70
18388;DHT22;9320;50.256;19.026;2023-05-10T14:33:17;19.60;43.20
18388;DHT22;9320;50.256;19.026;2023-05-10T14:35:46;19.50;43.80
18388;DHT22;9320;50.256;19.026;2023-05-10T14:38:14;19.40;43.70
18388;DHT22;9320;50.256;19.026;2023-05-10T14:40:42;19.50;44.50
18388;DHT22;9320;50.256;19.026;2023-05-10T14:43:12;19.80;43.50
18388;DHT22;9320;50.256;19.026;2023-05-10T14:45:40;20.10;42.90
18388;DHT22;9320;50.256;19.026;2023-05-10T14:48:08;20.40;42.60
18388;DHT22;9320;50.256;19.026;2023-05-10T14:50:38;20.80;42.20
18388;DHT22;9320;50.256;19.026;2023-05-10T14:53:06;21.10;41.40
18388;DHT22;9320;50.256;19.026;2023-05-10T14:55:34;20.90;41.20
18388;DHT22;9320;50.256;19.026;2023-05-10T14:58:03;20.70;41.70
18388;DHT22;9320;50.256;19.026;2023-05-10T15:00:33;20.60;42.20
18388;DHT22;9320;50.256;19.026;2023-05-10T15:03:01;20.60;42.30
18388;DHT22;9320;50.256;19.026;2023-05-10T15:05:30;20.40;42.50
18388;DHT22;9320;50.256;19.026;2023-05-10T15:07:59;20.30;42.90
18388;DHT22;9320;50.256;19.026;2023-05-10T15:10:27;20.10;43.20
18388;DHT22;9320;50.256;19.026;2023-05-10T15:12:55;20.00;43.30
18388;DHT22;9320;50.256;19.026;2023-05-10T15:15:23;19.80;43.60
18388;DHT22;9320;50.256;19.026;2023-05-10T15:17:52;19.70;43.80
18388;DHT22;9320;50.256;19.026;2023-05-10T15:20:20;19.60;43.90
18388;DHT22;9320;50.256;19.026;2023-05-10T15:22:48;19.60;44.00
18388;DHT22;9320;50.256;19.026;2023-05-10T15:25:16;19.70;44.10
18388;DHT22;9320;50.256;19.026;2023-05-10T15:27:45;19.60;44.10
18388;DHT22;9320;50.256;19.026;2023-05-10T15:30:13;19.70;44.10
18388;DHT22;9320;50.256;19.026;2023-05-10T15:32:41;19.60;43.80
18388;DHT22;9320;50.256;19.026;2023-05-10T15:35:11;19.70;44.00
18388;DHT22;9320;50.256;19.026;2023-05-10T15:37:39;19.70;43.90
18388;DHT22;9320;50.256;19.026;2023-05-10T15:40:07;19.70;44.00
18388;DHT22;9320;50.256;19.026;2023-05-10T15:42:36;19.60;43.80
18388;DHT22;9320;50.256;19.026;2023-05-10T15:45:04;19.60;43.90
18388;DHT22;9320;50.256;19.026;2023-05-10T15:47:33;19.60;43.90
18388;DHT22;9320;50.256;19.026;2023-05-10T15:50:01;19.60;44.00
18388;DHT22;9320;50.256;19.026;2023-05-10T15:52:30;19.50;44.30
18388;DHT22;9320;50.256;19.026;2023-05-10T15:54:58;19.60;44.50